createdAt,value
2023-04-23T00:00:26.983Z,82.17
2023-04-23T00:02:53.425Z,83.70
2023-04-23T00:05:16.500Z,85.71
2023-04-23T00:07:38.489Z,85.79
2023-04-23T00:10:01.368Z,87.39
2023-04-23T00:12:23.261Z,89.49
2023-04-23T00:14:44.934Z,91.08
2023-04-23T00:17:06.704Z,92.18
2023-04-23T00:19:28.114Z,93.03
2023-04-23T00:21:49.607Z,93.02
2023-04-23T00:24:11.130Z,93.96
2023-04-23T00:26:32.630Z,93.27
2023-04-23T00:28:54.260Z,94.23
2023-04-23T00:31:15.817Z,94.71
2023-04-23T00:33:37.380Z,94.92
2023-04-23T00:35:58.797Z,95.59
2023-04-23T00:38:21.364Z,95.88
2023-04-23T00:40:42.853Z,94.53
2023-04-23T00:43:04.995Z,93.91
2023-04-23T00:45:26.724Z,93.04
2023-04-23T00:47:48.478Z,91.31
2023-04-23T00:50:09.998Z,90.21
2023-04-23T00:52:31.748Z,88.97
2023-04-23T00:54:53.294Z,88.46
2023-04-23T00:57:14.817Z,87.94
2023-04-23T00:59:36.488Z,87.56
2023-04-23T01:01:58.630Z,85.63
2023-04-23T01:04:22.837Z,84.95
2023-04-23T01:06:47.153Z,84.84
2023-04-23T01:09:09.944Z,86.03
2023-04-23T01:11:32.262Z,86.35
2023-04-23T01:13:53.714Z,87.36
2023-04-23T01:16:15.178Z,89.06
2023-04-23T01:18:36.857Z,90.36
2023-04-23T01:20:58.905Z,91.22
2023-04-23T01:23:20.522Z,91.26
2023-04-23T01:25:42.890Z,91.51
2023-04-23T01:28:06.681Z,91.66
2023-04-23T01:30:28.409Z,91.46
2023-04-23T01:32:50.585Z,91.31
2023-04-23T01:35:13.213Z,91.64
2023-04-23T01:37:36.516Z,92.47
2023-04-23T01:39:58.463Z,91.63
2023-04-23T01:42:20.047Z,91.40
2023-04-23T01:44:41.671Z,91.58
2023-04-23T01:47:06.367Z,91.25
2023-04-23T01:49:28.564Z,90.28
2023-04-23T01:51:50.174Z,89.80
2023-04-23T01:54:11.674Z,90.03
2023-04-23T01:56:35.314Z,89.86
2023-04-23T01:58:57.066Z,90.87
2023-04-23T02:01:18.694Z,91.43
2023-04-23T02:03:40.386Z,90.98
2023-04-23T02:06:01.944Z,91.73
2023-04-23T02:08:23.421Z,92.63
2023-04-23T02:10:45.051Z,93.70
2023-04-23T02:13:07.214Z,94.79
2023-04-23T02:15:29.044Z,95.05
2023-04-23T02:17:53.443Z,93.37
2023-04-23T02:20:14.909Z,94.33
2023-04-23T02:22:41.295Z,94.21
2023-04-23T02:25:02.804Z,94.49
2023-04-23T02:27:24.298Z,95.01
2023-04-23T02:29:46.309Z,96.74
2023-04-23T02:32:07.730Z,97.31
2023-04-23T02:34:29.586Z,96.91
2023-04-23T02:36:51.110Z,95.70
2023-04-23T02:39:12.628Z,95.96
2023-04-23T02:41:34.098Z,96.74
2023-04-23T02:43:55.575Z,97.23
2023-04-23T02:46:17.072Z,96.85
2023-04-23T02:48:41.090Z,95.36
2023-04-23T02:51:03.271Z,95.61
2023-04-23T02:53:24.826Z,95.67
2023-04-23T02:55:46.237Z,96.83
2023-04-23T02:58:07.790Z,96.67
2023-04-23T03:00:29.366Z,96.42
2023-04-23T03:02:51.061Z,97.75
2023-04-23T03:05:12.803Z,97.47
2023-04-23T03:07:34.281Z,98.02
2023-04-23T03:09:55.746Z,99.36
2023-04-23T03:12:18.274Z,100.00
2023-04-23T03:14:39.999Z,100.00
2023-04-23T03:17:01.670Z,100.00
2023-04-23T03:19:23.254Z,100.00
2023-04-23T03:21:44.679Z,100.00
2023-04-23T03:24:06.578Z,100.00
2023-04-23T03:26:28.104Z,100.00
2023-04-23T03:28:49.569Z,100.00
2023-04-23T03:31:11.188Z,100.00
2023-04-23T03:33:32.712Z,100.00
2023-04-23T03:35:54.123Z,100.00
2023-04-23T03:38:15.738Z,100.00
2023-04-23T03:40:37.235Z,100.00
2023-04-23T03:42:58.797Z,100.00
2023-04-23T03:45:21.547Z,100.00
2023-04-23T03:47:43.978Z,100.00
2023-04-23T03:50:07.241Z,100.00
2023-04-23T03:52:28.840Z,100.00
2023-04-23T03:54:50.310Z,100.00
2023-04-23T03:57:14.724Z,100.00
2023-04-23T03:59:36.226Z,100.00
2023-04-23T04:01:58.524Z,100.00
2023-04-23T04:04:20.256Z,100.00
2023-04-23T04:06:41.970Z,100.00
2023-04-23T04:09:03.500Z,100.00
2023-04-23T04:11:25.043Z,100.00
2023-04-23T04:13:46.546Z,100.00
2023-04-23T04:16:08.194Z,100.00
2023-04-23T04:18:29.725Z,100.00
2023-04-23T04:20:52.259Z,100.00
2023-04-23T04:23:13.808Z,100.00
2023-04-23T04:25:39.873Z,100.00
2023-04-23T04:28:01.317Z,100.00
2023-04-23T04:30:23.937Z,100.00
2023-04-23T04:32:46.320Z,100.00
2023-04-23T04:35:12.848Z,100.00
2023-04-23T04:37:35.116Z,100.00
2023-04-23T04:39:57.105Z,100.00
2023-04-23T04:42:19.164Z,100.00
2023-04-23T04:44:43.948Z,100.00
2023-04-23T04:47:08.176Z,100.00
2023-04-23T04:49:29.726Z,100.00
2023-04-23T04:51:51.373Z,100.00
2023-04-23T04:54:12.824Z,100.00
2023-04-23T04:56:35.052Z,100.00
2023-04-23T04:58:56.700Z,100.00
2023-04-23T05:01:18.485Z,100.00
2023-04-23T05:03:40.178Z,100.00
2023-04-23T05:06:01.754Z,100.00
2023-04-23T05:08:23.263Z,100.00
2023-04-23T05:10:44.841Z,99.60
2023-04-23T05:13:06.313Z,100.00
2023-04-23T05:15:27.889Z,100.00
2023-04-23T05:17:53.356Z,100.00
2023-04-23T05:20:15.297Z,100.00
2023-04-23T05:22:41.772Z,99.19
2023-04-23T05:25:04.359Z,98.89
2023-04-23T05:27:25.878Z,97.75
2023-04-23T05:29:47.292Z,96.70
2023-04-23T05:32:09.172Z,95.40
2023-04-23T05:34:30.625Z,94.64
2023-04-23T05:36:52.066Z,94.48
2023-04-23T05:39:13.520Z,93.12
2023-04-23T05:41:35.049Z,90.84
2023-04-23T05:43:56.485Z,90.77
2023-04-23T05:46:18.987Z,89.93
2023-04-23T05:48:40.444Z,89.70
2023-04-23T05:51:02.017Z,89.15
2023-04-23T05:53:23.577Z,88.63
2023-04-23T05:55:45.078Z,87.27
2023-04-23T05:58:06.651Z,88.53
2023-04-23T06:00:28.385Z,87.92
2023-04-23T06:02:49.954Z,88.96
2023-04-23T06:05:12.103Z,87.79
2023-04-23T06:07:34.358Z,87.30
2023-04-23T06:09:55.825Z,88.97
2023-04-23T06:12:18.217Z,88.35
2023-04-23T06:14:39.822Z,87.29
2023-04-23T06:17:01.410Z,86.47
2023-04-23T06:19:25.527Z,86.22
2023-04-23T06:21:47.105Z,85.35
2023-04-23T06:24:08.622Z,84.89
2023-04-23T06:26:31.137Z,83.65
2023-04-23T06:28:54.138Z,83.03
2023-04-23T06:31:15.992Z,82.93
2023-04-23T06:33:37.602Z,82.93
2023-04-23T06:35:59.051Z,82.13
2023-04-23T06:38:22.967Z,83.32
2023-04-23T06:40:44.529Z,84.42
2023-04-23T06:43:07.915Z,86.41
2023-04-23T06:45:31.444Z,87.05
2023-04-23T06:47:53.346Z,85.77
2023-04-23T06:50:15.291Z,85.45
2023-04-23T06:52:36.800Z,86.79
2023-04-23T06:54:58.251Z,87.69
2023-04-23T06:57:19.780Z,86.36
2023-04-23T06:59:41.236Z,84.81
2023-04-23T07:02:02.692Z,86.06
2023-04-23T07:04:24.248Z,88.34
2023-04-23T07:06:45.788Z,86.39
2023-04-23T07:09:07.350Z,83.89
2023-04-23T07:11:31.043Z,82.92
2023-04-23T07:13:52.649Z,83.26
2023-04-23T07:16:14.215Z,86.24
2023-04-23T07:18:35.700Z,83.84
2023-04-23T07:20:57.244Z,84.55
2023-04-23T07:23:18.656Z,85.37
2023-04-23T07:25:40.175Z,84.59
2023-04-23T07:28:01.725Z,83.54
2023-04-23T07:30:24.463Z,83.16
2023-04-23T07:32:46.780Z,80.92
2023-04-23T07:35:10.383Z,82.02
2023-04-23T07:37:32.000Z,85.19
2023-04-23T07:39:54.094Z,82.26
2023-04-23T07:42:15.600Z,81.22
2023-04-23T07:44:37.157Z,80.27
2023-04-23T07:46:58.596Z,73.12
2023-04-23T07:49:20.060Z,78.38
2023-04-23T07:51:41.626Z,71.11
2023-04-23T07:54:03.399Z,75.84
2023-04-23T07:56:24.999Z,76.93
2023-04-23T07:58:46.429Z,72.94
2023-04-23T08:01:07.983Z,73.22
2023-04-23T08:03:29.573Z,68.88
2023-04-23T08:05:51.273Z,65.73
2023-04-23T08:08:13.090Z,64.68
2023-04-23T08:10:35.516Z,65.04
2023-04-23T08:12:57.019Z,65.09
2023-04-23T08:15:18.490Z,65.65
2023-04-23T08:17:40.001Z,61.78
2023-04-23T08:20:01.809Z,63.02
2023-04-23T08:22:23.318Z,62.51
2023-04-23T08:24:46.430Z,64.54
2023-04-23T08:27:07.904Z,58.81
2023-04-23T08:29:29.495Z,58.22
2023-04-23T08:31:51.009Z,59.05
2023-04-23T08:34:12.597Z,60.79
2023-04-23T08:36:34.081Z,63.67
2023-04-23T08:38:55.565Z,60.59
2023-04-23T08:41:22.723Z,55.23
2023-04-23T08:43:51.629Z,57.94
2023-04-23T08:46:14.996Z,55.47
2023-04-23T08:48:36.792Z,58.08
2023-04-23T08:51:02.090Z,59.32
2023-04-23T08:53:26.094Z,55.96
2023-04-23T08:55:50.540Z,56.07
2023-04-23T08:58:12.521Z,57.97
2023-04-23T09:00:34.877Z,56.50
2023-04-23T09:02:57.270Z,55.31
2023-04-23T09:05:19.002Z,58.10
2023-04-23T09:07:41.646Z,58.07
2023-04-23T09:10:05.032Z,57.83
2023-04-23T09:12:26.972Z,57.09
2023-04-23T09:14:50.317Z,56.03
2023-04-23T09:17:11.796Z,54.04
2023-04-23T09:19:33.285Z,51.83
2023-04-23T09:21:55.232Z,51.11
2023-04-23T09:24:17.926Z,49.64
2023-04-23T09:26:47.109Z,50.71
2023-04-23T09:29:13.700Z,51.46
2023-04-23T09:31:35.295Z,49.97
2023-04-23T09:33:56.795Z,47.44
2023-04-23T09:36:22.016Z,49.41
2023-04-23T09:38:43.524Z,49.88
2023-04-23T09:41:25.127Z,48.91
2023-04-23T09:43:48.227Z,48.52
2023-04-23T09:46:10.593Z,48.10
2023-04-23T09:48:41.871Z,46.73
2023-04-23T09:51:03.480Z,46.58
2023-04-23T09:53:26.312Z,45.83
2023-04-23T09:55:47.765Z,46.70
2023-04-23T09:58:15.523Z,45.25
2023-04-23T10:00:39.026Z,45.84
2023-04-23T10:03:01.353Z,45.84
2023-04-23T10:05:25.987Z,47.05
2023-04-23T10:07:50.924Z,45.30
2023-04-23T10:10:16.172Z,44.85
2023-04-23T10:12:53.455Z,45.78
2023-04-23T10:15:17.093Z,43.06
2023-04-23T10:17:39.881Z,42.46
2023-04-23T10:20:01.834Z,43.40
2023-04-23T10:22:27.608Z,43.36
2023-04-23T10:24:55.240Z,42.52
2023-04-23T10:27:30.740Z,41.33
2023-04-23T10:30:00.505Z,43.46
2023-04-23T10:32:22.001Z,46.25
2023-04-23T10:34:43.597Z,44.83
2023-04-23T10:37:06.216Z,43.89
2023-04-23T10:39:34.075Z,42.70
2023-04-23T10:41:56.539Z,43.21
2023-04-23T10:44:42.256Z,43.75
2023-04-23T10:47:04.213Z,44.83
2023-04-23T10:49:25.708Z,43.31
2023-04-23T10:54:16.750Z,42.65
2023-04-23T10:56:39.547Z,41.84
2023-04-23T10:59:01.160Z,41.35
2023-04-23T11:01:30.311Z,43.19
2023-04-23T11:03:52.454Z,43.61
2023-04-23T11:06:35.117Z,43.46
2023-04-23T11:08:56.953Z,42.16
2023-04-23T11:11:18.549Z,43.71
2023-04-23T11:13:51.388Z,42.80
2023-04-23T11:16:18.422Z,44.34
2023-04-23T11:19:12.203Z,47.40
2023-04-23T11:21:55.970Z,45.06
2023-04-23T11:24:17.528Z,43.34
2023-04-23T11:26:41.502Z,44.75
2023-04-23T11:29:04.314Z,43.25
2023-04-23T11:31:26.865Z,43.56
2023-04-23T11:33:48.367Z,39.25
2023-04-23T11:36:10.468Z,40.94
2023-04-23T11:38:33.671Z,39.91
2023-04-23T11:40:55.137Z,40.02
2023-04-23T11:43:20.918Z,37.24
2023-04-23T11:45:43.101Z,39.71
2023-04-23T11:48:05.809Z,39.50
2023-04-23T11:50:33.668Z,38.95
2023-04-23T11:52:55.468Z,38.73
2023-04-23T11:55:17.389Z,39.48
2023-04-23T11:57:47.153Z,37.71
2023-04-23T12:00:20.197Z,38.38
2023-04-23T12:03:06.067Z,37.46
2023-04-23T12:05:30.430Z,38.41
2023-04-23T12:07:52.019Z,36.94
2023-04-23T12:10:18.196Z,38.94
2023-04-23T12:12:39.616Z,35.13
2023-04-23T12:15:06.238Z,36.39
2023-04-23T12:17:27.670Z,37.11
2023-04-23T12:19:50.693Z,36.95
2023-04-23T12:22:12.148Z,36.64
2023-04-23T12:24:53.534Z,38.31
2023-04-23T12:27:16.827Z,37.20
2023-04-23T12:29:38.352Z,37.32
2023-04-23T12:32:00.396Z,36.32
2023-04-23T12:34:21.902Z,36.24
2023-04-23T12:36:49.262Z,35.88
2023-04-23T12:39:32.433Z,36.15
2023-04-23T12:41:56.651Z,36.09
2023-04-23T12:44:18.297Z,36.22
2023-04-23T12:46:39.791Z,37.32
2023-04-23T12:49:01.263Z,37.15
2023-04-23T12:51:22.747Z,36.75
2023-04-23T12:53:44.224Z,36.10
2023-04-23T12:56:06.146Z,34.53
2023-04-23T12:58:28.007Z,33.62
2023-04-23T13:00:49.605Z,34.17
2023-04-23T13:03:13.806Z,34.75
2023-04-23T13:05:35.592Z,31.98
2023-04-23T13:07:57.092Z,32.81
2023-04-23T13:10:18.567Z,33.39
2023-04-23T13:12:40.826Z,32.76
2023-04-23T13:15:02.434Z,30.72
2023-04-23T13:17:26.226Z,27.89
2023-04-23T13:19:47.720Z,29.29
2023-04-23T13:22:09.262Z,27.87
2023-04-23T13:24:30.811Z,28.66
2023-04-23T13:26:52.263Z,28.51
2023-04-23T13:29:13.786Z,29.54
2023-04-23T13:31:35.590Z,29.67
2023-04-23T13:33:57.969Z,27.37
2023-04-23T13:36:20.160Z,28.05
2023-04-23T13:38:41.619Z,29.65
2023-04-23T13:41:03.356Z,31.37
2023-04-23T13:43:24.835Z,30.83
2023-04-23T13:45:47.090Z,31.45
2023-04-23T13:48:08.772Z,31.26
2023-04-23T13:50:30.609Z,32.53
2023-04-23T13:52:52.052Z,32.63
2023-04-23T13:55:13.653Z,31.58
2023-04-23T13:57:35.330Z,30.86
2023-04-23T13:59:56.809Z,29.03
2023-04-23T14:02:18.338Z,28.52
2023-04-23T14:04:39.878Z,28.22
2023-04-23T14:07:01.408Z,29.90
2023-04-23T14:09:22.872Z,29.11
2023-04-23T14:11:44.594Z,30.02
2023-04-23T14:14:07.405Z,30.31
2023-04-23T14:16:29.032Z,30.63
2023-04-23T14:18:50.637Z,30.01
2023-04-23T14:21:14.223Z,30.52
2023-04-23T14:24:00.963Z,32.53
2023-04-23T14:29:02.493Z,33.34
2023-04-23T14:31:24.033Z,33.32
2023-04-23T14:33:45.481Z,32.79
2023-04-23T14:36:07.154Z,33.17
2023-04-23T14:38:28.896Z,32.42
2023-04-23T14:40:50.638Z,31.06
2023-04-23T14:43:15.510Z,28.23
2023-04-23T14:45:37.592Z,29.07
2023-04-23T14:47:59.640Z,27.96
2023-04-23T14:50:21.140Z,27.09
2023-04-23T14:52:47.556Z,28.00
2023-04-23T14:55:10.354Z,27.34
2023-04-23T14:57:31.787Z,25.97
2023-04-23T14:59:53.236Z,27.86
2023-04-23T15:02:14.816Z,26.58
2023-04-23T15:04:36.665Z,28.78
2023-04-23T15:06:58.174Z,30.37
2023-04-23T15:09:19.613Z,28.81
2023-04-23T15:11:42.223Z,29.09
2023-04-23T15:14:24.622Z,29.94
2023-04-23T15:16:48.959Z,30.99
2023-04-23T15:19:11.407Z,31.27
2023-04-23T15:21:33.047Z,31.37
2023-04-23T15:23:56.454Z,31.91
2023-04-23T15:26:18.372Z,30.85
2023-04-23T15:28:39.866Z,30.95
2023-04-23T15:31:01.738Z,29.94
2023-04-23T15:33:23.260Z,30.03
2023-04-23T15:35:44.750Z,29.81
2023-04-23T15:38:06.587Z,28.81
2023-04-23T15:40:29.530Z,28.06
2023-04-23T15:42:50.975Z,29.40
2023-04-23T15:45:12.494Z,28.55
2023-04-23T15:47:33.999Z,29.18
2023-04-23T15:49:55.469Z,28.63
2023-04-23T15:52:18.135Z,28.22
2023-04-23T15:54:39.612Z,27.83
2023-04-23T15:57:01.694Z,27.68
2023-04-23T15:59:23.130Z,27.73
2023-04-23T16:01:44.576Z,28.07
2023-04-23T16:04:10.861Z,28.57
2023-04-23T16:06:33.284Z,31.08
2023-04-23T16:08:54.751Z,31.27
2023-04-23T16:11:16.241Z,32.36
2023-04-23T16:13:37.740Z,32.75
2023-04-23T16:15:59.249Z,32.93
2023-04-23T16:18:21.387Z,33.69
2023-04-23T16:20:42.852Z,32.84
2023-04-23T16:23:04.379Z,32.60
2023-04-23T16:25:25.968Z,32.84
2023-04-23T16:27:47.440Z,32.98
2023-04-23T16:30:09.445Z,33.80
2023-04-23T16:32:31.200Z,34.69
2023-04-23T16:34:52.674Z,33.35
2023-04-23T16:37:15.857Z,33.52
2023-04-23T16:39:37.455Z,33.67
2023-04-23T16:41:59.041Z,33.31
2023-04-23T16:44:20.560Z,33.08
2023-04-23T16:46:42.179Z,33.98
2023-04-23T16:49:03.743Z,34.97
2023-04-23T16:51:26.451Z,34.50
2023-04-23T16:53:48.062Z,33.90
2023-04-23T16:56:09.617Z,34.16
2023-04-23T16:58:31.721Z,34.85
2023-04-23T17:00:53.145Z,33.79
2023-04-23T17:03:15.932Z,34.71
2023-04-23T17:05:40.036Z,35.49
2023-04-23T17:08:01.763Z,35.20
2023-04-23T17:10:23.238Z,35.41
2023-04-23T17:12:45.566Z,35.55
2023-04-23T17:15:07.674Z,36.45
2023-04-23T17:17:29.154Z,36.16
2023-04-23T17:19:51.099Z,36.16
2023-04-23T17:22:12.612Z,35.96
2023-04-23T17:24:34.200Z,36.53
2023-04-23T17:26:56.406Z,36.57
2023-04-23T17:29:17.873Z,37.75
2023-04-23T17:31:39.366Z,37.78
2023-04-23T17:34:00.854Z,37.90
2023-04-23T17:36:22.368Z,37.22
2023-04-23T17:38:43.917Z,37.83
2023-04-23T17:41:05.754Z,37.65
2023-04-23T17:43:27.617Z,37.29
2023-04-23T17:45:49.363Z,37.99
2023-04-23T17:48:14.705Z,38.07
2023-04-23T17:50:36.437Z,38.64
2023-04-23T17:52:58.126Z,38.83
2023-04-23T17:55:21.907Z,38.51
2023-04-23T17:57:43.573Z,38.06
2023-04-23T18:00:12.317Z,38.60
2023-04-23T18:02:40.102Z,38.43
2023-04-23T18:05:01.945Z,39.24
2023-04-23T18:07:23.461Z,39.19
2023-04-23T18:09:45.245Z,39.12
2023-04-23T18:12:06.871Z,39.96
2023-04-23T18:14:28.340Z,40.80
2023-04-23T18:16:49.864Z,40.04
2023-04-23T18:19:11.386Z,40.57
2023-04-23T18:21:33.979Z,41.30
2023-04-23T18:23:55.643Z,41.35
2023-04-23T18:26:17.063Z,41.30
2023-04-23T18:28:38.812Z,41.79
2023-04-23T18:31:02.596Z,42.12
2023-04-23T18:33:42.553Z,42.19
2023-04-23T18:36:34.024Z,41.13
2023-04-23T18:38:55.613Z,42.26
2023-04-23T18:41:17.158Z,42.19
2023-04-23T18:43:38.725Z,42.54
2023-04-23T18:46:01.070Z,42.08
2023-04-23T18:48:34.492Z,42.65
2023-04-23T18:50:57.847Z,43.59
2023-04-23T18:53:21.575Z,43.82
2023-04-23T18:55:43.599Z,44.01
2023-04-23T18:58:05.189Z,44.35
2023-04-23T19:00:27.254Z,44.48
2023-04-23T19:02:48.882Z,44.88
2023-04-23T19:05:11.320Z,46.05
2023-04-23T19:07:37.083Z,46.92
2023-04-23T19:09:58.589Z,49.44
2023-04-23T19:12:20.051Z,48.17
2023-04-23T19:14:41.499Z,48.46
2023-04-23T19:17:02.931Z,48.50
2023-04-23T19:19:24.508Z,47.83
2023-04-23T19:21:46.087Z,48.78
2023-04-23T19:24:07.722Z,49.47
2023-04-23T19:26:29.192Z,54.16
2023-04-23T19:28:50.749Z,62.90
2023-04-23T19:31:12.246Z,74.72
2023-04-23T19:33:34.880Z,77.28
2023-04-23T19:35:56.577Z,80.12
2023-04-23T19:38:18.159Z,81.99
2023-04-23T19:40:39.718Z,83.02
2023-04-23T19:43:01.403Z,83.59
2023-04-23T19:45:22.886Z,83.15
2023-04-23T19:47:44.732Z,84.51
2023-04-23T19:50:07.319Z,83.91
2023-04-23T19:52:28.849Z,82.59
2023-04-23T19:54:50.425Z,82.63
2023-04-23T19:57:11.842Z,81.64
2023-04-23T19:59:33.309Z,82.86
2023-04-23T20:01:54.751Z,83.14
2023-04-23T20:04:16.549Z,80.26
2023-04-23T20:06:38.045Z,77.65
2023-04-23T20:09:07.589Z,79.81
2023-04-23T20:11:30.130Z,82.93
2023-04-23T20:13:51.721Z,79.50
2023-04-23T20:16:13.228Z,77.98
2023-04-23T20:18:35.893Z,76.33
2023-04-23T20:20:57.340Z,79.12
2023-04-23T20:23:18.776Z,83.00
2023-04-23T20:25:40.565Z,82.47
2023-04-23T20:28:02.009Z,82.78
2023-04-23T20:30:23.553Z,84.33
2023-04-23T20:32:45.074Z,85.54
2023-04-23T20:35:06.785Z,85.38
2023-04-23T20:37:28.501Z,82.43
2023-04-23T20:39:50.213Z,80.20
2023-04-23T20:42:12.096Z,78.52
2023-04-23T20:44:34.442Z,77.53
2023-04-23T20:46:58.001Z,76.54
2023-04-23T20:49:19.892Z,75.91
2023-04-23T20:51:41.487Z,75.06
2023-04-23T20:54:03.120Z,75.32
2023-04-23T20:56:24.648Z,74.29
2023-04-23T20:58:46.196Z,73.70
2023-04-23T21:01:11.212Z,73.41
2023-04-23T21:03:33.163Z,73.38
2023-04-23T21:05:54.710Z,73.13
2023-04-23T21:08:16.264Z,72.71
2023-04-23T21:10:38.848Z,71.45
2023-04-23T21:13:00.573Z,71.20
2023-04-23T21:15:22.048Z,71.53
2023-04-23T21:17:43.528Z,70.91
2023-04-23T21:20:05.911Z,70.67
2023-04-23T21:22:27.355Z,68.74
2023-04-23T21:24:48.818Z,68.57
2023-04-23T21:27:15.690Z,69.76
2023-04-23T21:29:37.393Z,74.19
2023-04-23T21:31:58.806Z,71.96
2023-04-23T21:34:21.455Z,70.84
2023-04-23T21:36:45.889Z,68.73
2023-04-23T21:39:08.046Z,68.90
2023-04-23T21:41:29.622Z,68.90
2023-04-23T21:43:51.225Z,68.54
2023-04-23T21:46:12.714Z,68.09
2023-04-23T21:48:34.248Z,67.09
2023-04-23T21:50:55.804Z,67.92
2023-04-23T21:53:18.617Z,69.91
2023-04-23T21:55:40.043Z,68.91
2023-04-23T22:00:26.270Z,67.81
2023-04-23T22:02:48.123Z,67.40
2023-04-23T22:05:10.096Z,67.15
2023-04-23T22:07:31.802Z,67.06
2023-04-23T22:09:53.403Z,67.27
2023-04-23T22:12:14.930Z,69.74
2023-04-23T22:14:37.266Z,69.01
2023-04-23T22:16:58.975Z,69.59
2023-04-23T22:19:20.564Z,69.35
2023-04-23T22:21:41.996Z,70.00
2023-04-23T22:24:03.873Z,69.25
2023-04-23T22:26:25.683Z,68.91
2023-04-23T22:28:47.204Z,70.13
2023-04-23T22:31:08.656Z,69.38
2023-04-23T22:33:30.173Z,72.94
2023-04-23T22:35:51.654Z,73.17
2023-04-23T22:38:13.100Z,72.21
2023-04-23T22:40:34.563Z,71.51
2023-04-23T22:42:56.022Z,70.87
2023-04-23T22:45:17.596Z,72.58
2023-04-23T22:47:39.296Z,73.84
2023-04-23T22:50:01.748Z,74.57
2023-04-23T22:52:23.252Z,76.55
2023-04-23T22:54:44.926Z,77.84
2023-04-23T22:57:06.647Z,79.59
2023-04-23T22:59:28.191Z,78.47
2023-04-23T23:01:49.685Z,80.30
2023-04-23T23:04:12.914Z,79.20
2023-04-23T23:06:34.414Z,78.55
2023-04-23T23:08:55.917Z,79.31
2023-04-23T23:11:17.398Z,80.03
2023-04-23T23:13:40.621Z,81.82
2023-04-23T23:16:05.728Z,80.97
2023-04-23T23:18:27.299Z,78.95
2023-04-23T23:20:48.759Z,78.27
2023-04-23T23:23:10.266Z,79.58
2023-04-23T23:25:31.794Z,80.65
2023-04-23T23:27:53.428Z,80.85
2023-04-23T23:30:15.641Z,80.50
2023-04-23T23:32:37.238Z,81.37
2023-04-23T23:34:58.813Z,81.36
2023-04-23T23:37:20.303Z,83.16
2023-04-23T23:39:42.158Z,84.18
2023-04-23T23:42:03.946Z,85.46
2023-04-23T23:44:25.433Z,86.31
2023-04-23T23:46:46.947Z,85.80
2023-04-23T23:49:08.499Z,85.06
2023-04-23T23:51:30.225Z,85.57
2023-04-23T23:53:51.655Z,85.32
2023-04-23T23:56:13.095Z,85.36
2023-04-23T23:58:34.553Z,84.87
